createdAt,value
2023-02-11T00:01:32.610Z,101069.66
2023-02-11T00:04:00.155Z,101068.28
2023-02-11T00:06:28.810Z,101065.06
2023-02-11T00:08:56.862Z,101078.66
2023-02-11T00:11:31.240Z,101072.66
2023-02-11T00:14:02.292Z,101079.53
2023-02-11T00:16:31.167Z,101074.41
2023-02-11T00:19:03.039Z,101061.81
2023-02-11T00:21:30.193Z,101059.81
2023-02-11T00:23:59.656Z,101051.31
2023-02-11T00:26:31.703Z,101041.38
2023-02-11T00:28:59.117Z,101053.31
2023-02-11T00:31:26.663Z,101042.97
2023-02-11T00:33:54.290Z,101051.44
2023-02-11T00:36:26.012Z,101047.03
2023-02-11T00:38:54.931Z,101044.66
2023-02-11T00:41:23.078Z,101033.50
2023-02-11T00:43:50.290Z,101025.81
2023-02-11T00:46:19.084Z,101027.56
2023-02-11T00:48:46.273Z,101038.84
2023-02-11T00:51:13.793Z,101054.91
2023-02-11T00:53:41.176Z,101057.47
2023-02-11T00:56:08.773Z,101063.31
2023-02-11T00:58:36.800Z,101064.19
2023-02-11T01:01:04.790Z,101072.47
2023-02-11T01:03:32.423Z,101057.13
2023-02-11T01:05:59.422Z,101058.69
2023-02-11T01:08:26.377Z,101036.50
2023-02-11T01:11:02.735Z,101034.69
2023-02-11T01:13:31.675Z,101037.91
2023-02-11T01:15:58.638Z,101027.50
2023-02-11T01:18:26.011Z,101036.19
2023-02-11T01:20:53.499Z,101047.06
2023-02-11T01:23:21.542Z,101061.56
2023-02-11T01:25:48.994Z,101060.94
2023-02-11T01:28:28.376Z,101054.75
2023-02-11T01:30:56.186Z,101053.81
2023-02-11T01:33:24.561Z,101076.56
2023-02-11T01:35:52.476Z,101063.78
2023-02-11T01:38:25.653Z,101069.56
2023-02-11T01:41:03.359Z,101068.63
2023-02-11T01:43:42.006Z,101067.63
2023-02-11T01:46:23.556Z,101051.28
2023-02-11T01:48:57.143Z,101050.16
2023-02-11T01:52:01.463Z,101052.50
2023-02-11T01:54:52.798Z,101037.06
2023-02-11T01:57:27.133Z,101038.66
2023-02-11T02:00:09.490Z,101031.59
2023-02-11T02:03:04.079Z,101037.38
2023-02-11T02:06:07.054Z,101023.59
2023-02-11T02:08:57.252Z,101020.03
2023-02-11T02:11:24.466Z,101015.69
2023-02-11T02:13:51.313Z,101021.66
2023-02-11T02:16:22.672Z,101024.00
2023-02-11T02:19:20.221Z,101024.16
2023-02-11T02:22:10.426Z,101040.22
2023-02-11T02:24:52.498Z,101042.69
2023-02-11T02:27:51.164Z,101046.19
2023-02-11T02:30:55.477Z,101035.81
2023-02-11T02:34:00.648Z,101038.38
2023-02-11T02:36:47.764Z,101030.72
2023-02-11T02:39:27.412Z,101028.00
2023-02-11T02:41:55.244Z,101020.13
2023-02-11T02:44:22.589Z,101019.25
2023-02-11T02:46:49.955Z,101008.13
2023-02-11T02:49:17.289Z,101022.47
2023-02-11T02:52:03.361Z,101016.38
2023-02-11T02:54:57.935Z,101014.59
2023-02-11T02:57:38.292Z,101014.59
2023-02-11T03:00:44.236Z,101011.25
2023-02-11T03:03:29.162Z,101010.31
2023-02-11T03:06:29.789Z,101012.69
2023-02-11T03:09:40.609Z,101021.31
2023-02-11T03:12:09.298Z,101015.06
2023-02-11T03:14:36.531Z,101009.34
2023-02-11T03:17:06.159Z,101004.13
2023-02-11T03:19:41.154Z,101007.47
2023-02-11T03:22:25.396Z,100993.50
2023-02-11T03:24:52.392Z,101008.00
2023-02-11T03:27:32.863Z,101007.34
2023-02-11T03:30:18.717Z,101008.19
2023-02-11T03:32:55.086Z,101001.16
2023-02-11T03:35:29.080Z,100998.19
2023-02-11T03:38:05.467Z,101001.50
2023-02-11T03:40:38.682Z,101003.69
2023-02-11T03:43:35.084Z,100986.66
2023-02-11T03:46:03.547Z,100987.66
2023-02-11T03:48:36.309Z,100980.66
2023-02-11T03:51:07.052Z,100984.16
2023-02-11T03:53:34.210Z,100973.91
2023-02-11T03:56:06.573Z,100971.34
2023-02-11T03:58:33.690Z,100965.28
2023-02-11T04:01:02.376Z,100966.06
2023-02-11T04:03:29.558Z,100965.28
2023-02-11T04:05:56.464Z,100968.50
2023-02-11T04:08:23.409Z,100977.97
2023-02-11T04:10:50.290Z,100985.84
2023-02-11T04:13:17.249Z,100986.66
2023-02-11T04:15:44.156Z,100977.22
2023-02-11T04:18:11.119Z,100968.72
2023-02-11T04:20:37.935Z,100967.84
2023-02-11T04:23:05.036Z,100967.03
2023-02-11T04:25:31.975Z,100971.19
2023-02-11T04:27:59.032Z,100966.28
2023-02-11T04:30:25.918Z,100975.53
2023-02-11T04:32:54.481Z,100981.56
2023-02-11T04:35:21.629Z,100969.56
2023-02-11T04:37:48.615Z,100976.56
2023-02-11T04:40:15.675Z,100976.44
2023-02-11T04:42:42.563Z,100981.56
2023-02-11T04:45:09.714Z,100966.06
2023-02-11T04:47:37.697Z,100961.19
2023-02-11T04:50:05.078Z,100960.97
2023-02-11T04:52:31.918Z,100968.72
2023-02-11T04:54:58.789Z,100974.69
2023-02-11T04:57:25.698Z,100973.94
2023-02-11T04:59:52.748Z,100986.03
2023-02-11T05:02:19.618Z,100980.31
2023-02-11T05:04:46.700Z,100980.81
2023-02-11T05:07:13.769Z,100976.78
2023-02-11T05:09:40.736Z,100978.50
2023-02-11T05:12:07.690Z,100975.09
2023-02-11T05:14:34.608Z,100979.38
2023-02-11T05:17:01.620Z,100982.06
2023-02-11T05:19:28.724Z,100980.47
2023-02-11T05:22:02.477Z,100969.28
2023-02-11T05:24:32.300Z,100964.28
2023-02-11T05:26:59.662Z,100959.91
2023-02-11T05:29:26.618Z,100953.81
2023-02-11T05:31:53.521Z,100961.63
2023-02-11T05:34:20.639Z,100965.13
2023-02-11T05:36:47.574Z,100951.44
2023-02-11T05:39:14.495Z,100934.50
2023-02-11T05:41:41.307Z,100947.28
2023-02-11T05:44:08.251Z,100947.00
2023-02-11T05:46:35.180Z,100944.59
2023-02-11T05:49:02.181Z,100951.59
2023-02-11T05:51:29.044Z,100945.41
2023-02-11T05:53:56.754Z,100959.16
2023-02-11T05:56:23.704Z,100949.69
2023-02-11T05:58:50.577Z,100947.16
2023-02-11T06:01:18.868Z,100953.94
2023-02-11T06:03:45.890Z,100942.69
2023-02-11T06:06:13.098Z,100940.84
2023-02-11T06:08:40.411Z,100946.06
2023-02-11T06:11:07.547Z,100943.38
2023-02-11T06:13:35.862Z,100943.44
2023-02-11T06:16:03.806Z,100947.69
2023-02-11T06:18:30.755Z,100944.47
2023-02-11T06:20:57.723Z,100940.97
2023-02-11T06:23:24.956Z,100945.94
2023-02-11T06:25:53.157Z,100952.88
2023-02-11T06:28:20.331Z,100956.16
2023-02-11T06:30:47.371Z,100954.56
2023-02-11T06:33:14.325Z,100961.38
2023-02-11T06:35:41.187Z,100975.88
2023-02-11T06:38:08.093Z,100947.00
2023-02-11T06:40:35.022Z,100945.13
2023-02-11T06:43:01.979Z,100955.53
2023-02-11T06:45:28.941Z,100975.97
2023-02-11T06:47:55.932Z,100961.38
2023-02-11T06:50:22.924Z,100970.13
2023-02-11T06:52:49.886Z,100973.31
2023-02-11T06:55:16.817Z,100975.97
2023-02-11T06:57:43.668Z,100972.66
2023-02-11T07:00:11.772Z,100979.59
2023-02-11T07:02:38.940Z,100984.63
2023-02-11T07:05:07.918Z,100983.00
2023-02-11T07:07:35.233Z,100984.78
2023-02-11T07:10:05.852Z,100983.97
2023-02-11T07:12:32.869Z,100981.47
2023-02-11T07:14:59.860Z,100975.50
2023-02-11T07:17:26.728Z,100977.91
2023-02-11T07:19:53.646Z,100977.13
2023-02-11T07:22:20.610Z,100984.81
2023-02-11T07:24:47.479Z,100985.56
2023-02-11T07:27:14.329Z,100980.47
2023-02-11T07:29:43.501Z,100981.19
2023-02-11T07:32:10.376Z,100964.19
2023-02-11T07:34:37.414Z,100961.63
2023-02-11T07:37:04.471Z,100961.63
2023-02-11T07:39:31.482Z,100957.47
2023-02-11T07:41:58.474Z,100956.81
2023-02-11T07:44:26.071Z,100965.28
2023-02-11T07:46:53.287Z,100963.53
2023-02-11T07:49:20.267Z,100967.84
2023-02-11T07:51:49.053Z,100961.94
2023-02-11T07:54:15.948Z,100974.69
2023-02-11T07:56:43.039Z,100980.75
2023-02-11T07:59:11.493Z,100981.69
2023-02-11T08:01:38.574Z,100982.59
2023-02-11T08:04:06.742Z,100981.88
2023-02-11T08:06:35.446Z,100994.72
2023-02-11T08:09:08.840Z,101001.28
2023-02-11T08:11:36.272Z,100986.09
2023-02-11T08:14:03.382Z,100993.84
2023-02-11T08:16:36.225Z,100985.66
2023-02-11T08:19:08.175Z,100984.75
2023-02-11T08:21:35.083Z,100979.63
2023-02-11T08:24:04.239Z,100992.69
2023-02-11T08:26:32.822Z,101001.09
2023-02-11T08:28:59.697Z,101002.09
2023-02-11T08:31:33.280Z,100989.41
2023-02-11T08:34:02.325Z,101004.81
2023-02-11T08:36:35.964Z,101003.31
2023-02-11T08:39:19.235Z,101010.81
2023-02-11T08:41:50.240Z,101020.13
2023-02-11T08:44:18.913Z,101029.53
2023-02-11T08:46:46.643Z,101022.69
2023-02-11T08:49:14.643Z,101015.94
2023-02-11T08:51:42.082Z,101013.53
2023-02-11T08:54:09.903Z,101024.53
2023-02-11T08:56:38.309Z,101026.31
2023-02-11T08:59:06.424Z,101031.53
2023-02-11T09:01:33.710Z,101034.50
2023-02-11T09:04:01.083Z,101033.44
2023-02-11T09:06:28.695Z,101039.88
2023-02-11T09:08:57.633Z,101041.69
2023-02-11T09:11:32.651Z,101031.25
2023-02-11T09:14:01.170Z,101043.50
2023-02-11T09:16:32.129Z,101039.31
2023-02-11T09:19:01.298Z,101037.59
2023-02-11T09:21:29.382Z,101040.34
2023-02-11T09:23:57.158Z,101035.97
2023-02-11T09:26:30.659Z,101035.16
2023-02-11T09:28:58.316Z,101050.50
2023-02-11T09:31:28.784Z,101056.34
2023-02-11T09:34:00.462Z,101064.22
2023-02-11T09:36:31.889Z,101071.81
2023-02-11T09:39:01.151Z,101069.44
2023-02-11T09:41:58.413Z,101083.91
2023-02-11T09:44:31.290Z,101067.72
2023-02-11T09:47:21.119Z,101077.13
2023-02-11T09:49:53.615Z,101068.97
2023-02-11T09:52:39.308Z,101064.75
2023-02-11T09:55:42.721Z,101069.97
2023-02-11T09:58:26.442Z,101067.34
2023-02-11T10:01:45.261Z,101068.50
2023-02-11T10:04:49.512Z,101058.94
2023-02-11T10:07:36.179Z,101071.59
2023-02-11T10:10:29.306Z,101080.22
2023-02-11T10:13:42.567Z,101079.66
2023-02-11T10:16:51.245Z,101074.47
2023-02-11T10:19:52.658Z,101074.47
2023-02-11T10:22:45.427Z,101074.00
2023-02-11T10:25:24.697Z,101092.81
2023-02-11T10:27:55.148Z,101099.69
2023-02-11T10:30:41.087Z,101103.13
2023-02-11T10:33:34.257Z,101094.72
2023-02-11T10:36:01.332Z,101101.72
2023-02-11T10:38:28.381Z,101113.53
2023-02-11T10:40:55.274Z,101115.44
2023-02-11T10:43:27.498Z,101112.81
2023-02-11T10:45:57.153Z,101113.78
2023-02-11T10:48:43.261Z,101105.44
2023-02-11T10:51:14.530Z,101102.06
2023-02-11T10:53:42.079Z,101112.47
2023-02-11T10:56:22.136Z,101100.75
2023-02-11T10:59:14.335Z,101100.75
2023-02-11T11:01:52.534Z,101115.56
2023-02-11T11:04:34.282Z,101114.16
2023-02-11T11:07:24.938Z,101106.72
2023-02-11T11:10:18.612Z,101118.09
2023-02-11T11:12:45.410Z,101115.28
2023-02-11T11:15:26.948Z,101109.00
2023-02-11T11:18:23.460Z,101108.47
2023-02-11T11:21:26.544Z,101107.59
2023-02-11T11:24:01.283Z,101106.09
2023-02-11T11:26:53.967Z,101116.56
2023-02-11T11:29:28.717Z,101103.09
2023-02-11T11:32:04.447Z,101114.94
2023-02-11T11:34:38.623Z,101110.88
2023-02-11T11:37:31.730Z,101115.06
2023-02-11T11:40:22.565Z,101107.72
2023-02-11T11:43:03.993Z,101122.44
2023-02-11T11:45:31.132Z,101120.56
2023-02-11T11:48:21.424Z,101118.81
2023-02-11T11:50:55.311Z,101110.31
2023-02-11T11:54:10.140Z,101106.31
2023-02-11T11:56:53.443Z,101113.88
2023-02-11T11:59:21.688Z,101113.00
2023-02-11T12:02:47.621Z,101116.16
2023-02-11T12:05:46.920Z,101119.13
2023-02-11T12:08:34.807Z,101123.41
2023-02-11T12:11:26.614Z,101106.88
2023-02-11T12:14:09.354Z,101112.47
2023-02-11T12:16:53.580Z,101109.91
2023-02-11T12:19:50.648Z,101114.84
2023-02-11T12:22:41.876Z,101113.19
2023-02-11T12:25:35.868Z,101109.78
2023-02-11T12:28:34.711Z,101111.53
2023-02-11T12:31:14.122Z,101110.47
2023-02-11T12:34:05.079Z,101104.16
2023-02-11T12:37:03.177Z,101109.81
2023-02-11T12:39:54.375Z,101111.25
2023-02-11T12:43:02.617Z,101107.94
2023-02-11T12:45:59.062Z,101100.66
2023-02-11T12:48:55.971Z,101110.69
2023-02-11T12:51:44.174Z,101101.31
2023-02-11T12:54:18.797Z,101111.66
2023-02-11T12:57:08.055Z,101100.56
2023-02-11T13:00:08.940Z,101109.28
2023-02-11T13:02:52.179Z,101107.34
2023-02-11T13:05:38.586Z,101101.81
2023-02-11T13:08:33.745Z,101100.22
2023-02-11T13:11:23.260Z,101090.81
2023-02-11T13:14:22.214Z,101091.69
2023-02-11T13:16:50.928Z,101097.16
2023-02-11T13:19:38.081Z,101102.78
2023-02-11T13:22:17.195Z,101088.78
2023-02-11T13:25:16.917Z,101092.91
2023-02-11T13:28:02.680Z,101084.75
2023-02-11T13:30:35.826Z,101082.34
2023-02-11T13:33:05.424Z,101081.50
2023-02-11T13:35:40.929Z,101082.03
2023-02-11T13:38:16.568Z,101085.94
2023-02-11T13:40:44.448Z,101093.47
2023-02-11T13:43:23.816Z,101090.13
2023-02-11T13:45:52.389Z,101090.44
2023-02-11T13:48:25.471Z,101083.22
2023-02-11T13:51:00.861Z,101095.94
2023-02-11T13:53:29.503Z,101096.22
2023-02-11T13:56:30.665Z,101102.78
2023-02-11T13:59:02.136Z,101100.56
2023-02-11T14:02:07.339Z,101109.44
2023-02-11T14:04:53.668Z,101110.47
2023-02-11T14:07:52.434Z,101108.06
2023-02-11T14:10:43.989Z,101116.72
2023-02-11T14:13:49.256Z,101113.88
2023-02-11T14:16:37.086Z,101116.22
2023-02-11T14:19:06.042Z,101110.25
2023-02-11T14:21:41.129Z,101117.00
2023-02-11T14:24:14.468Z,101115.28
2023-02-11T14:26:51.138Z,101113.03
2023-02-11T14:29:45.907Z,101118.91
2023-02-11T14:32:48.289Z,101116.34
2023-02-11T14:35:48.972Z,101118.00
2023-02-11T14:38:37.488Z,101122.38
2023-02-11T14:41:31.876Z,101129.34
2023-02-11T14:44:04.876Z,101128.75
2023-02-11T14:46:33.062Z,101131.41
2023-02-11T14:49:03.651Z,101139.13
2023-02-11T14:51:36.401Z,101143.19
2023-02-11T14:54:26.480Z,101143.91
2023-02-11T14:57:09.882Z,101142.97
2023-02-11T14:59:36.852Z,101141.28
2023-02-11T15:02:03.867Z,101136.34
2023-02-11T15:04:36.412Z,101137.91
2023-02-11T15:07:06.983Z,101141.28
2023-02-11T15:09:48.368Z,101142.88
2023-02-11T15:12:23.687Z,101138.53
2023-02-11T15:14:57.951Z,101130.84
2023-02-11T15:17:30.963Z,101132.38
2023-02-11T15:20:01.807Z,101151.72
2023-02-11T15:22:36.767Z,101146.41
2023-02-11T15:25:06.692Z,101154.00
2023-02-11T15:28:00.085Z,101171.38
2023-02-11T15:30:36.331Z,101172.00
2023-02-11T15:33:05.953Z,101179.78
2023-02-11T15:35:37.789Z,101167.09
2023-02-11T15:38:05.620Z,101174.88
2023-02-11T15:40:36.188Z,101174.75
2023-02-11T15:43:09.604Z,101178.13
2023-02-11T15:45:42.708Z,101176.75
2023-02-11T15:48:18.608Z,101182.75
2023-02-11T15:51:01.033Z,101180.88
2023-02-11T15:53:36.144Z,101182.00
2023-02-11T15:56:17.365Z,101190.63
2023-02-11T15:58:47.792Z,101189.59
2023-02-11T16:01:15.154Z,101197.13
2023-02-11T16:03:43.537Z,101190.34
2023-02-11T16:06:24.546Z,101182.56
2023-02-11T16:09:31.538Z,101193.00
2023-02-11T16:12:03.622Z,101187.00
2023-02-11T16:14:36.942Z,101187.69
2023-02-11T16:17:10.123Z,101194.22
2023-02-11T16:19:48.316Z,101192.34
2023-02-11T16:22:25.895Z,101196.78
2023-02-11T16:24:57.188Z,101192.13
2023-02-11T16:27:34.436Z,101200.84
2023-02-11T16:30:01.729Z,101199.09
2023-02-11T16:32:30.755Z,101207.59
2023-02-11T16:35:01.358Z,101213.84
2023-02-11T16:37:28.494Z,101211.78
2023-02-11T16:39:58.088Z,101216.63
2023-02-11T16:42:25.257Z,101214.88
2023-02-11T16:44:52.198Z,101219.34
2023-02-11T16:47:28.866Z,101222.78
2023-02-11T16:49:57.269Z,101223.97
2023-02-11T16:52:25.457Z,101228.97
2023-02-11T16:54:52.929Z,101219.84
2023-02-11T16:57:22.485Z,101217.03
2023-02-11T16:59:50.043Z,101225.66
2023-02-11T17:02:28.375Z,101217.03
2023-02-11T17:05:00.532Z,101223.19
2023-02-11T17:07:28.457Z,101221.47
2023-02-11T17:09:55.739Z,101228.31
2023-02-11T17:12:25.348Z,101223.09
2023-02-11T17:14:53.346Z,101226.97
2023-02-11T17:17:22.096Z,101225.47
2023-02-11T17:19:49.250Z,101235.66
2023-02-11T17:22:16.184Z,101237.19
2023-02-11T17:24:43.090Z,101236.47
2023-02-11T17:27:12.107Z,101236.63
2023-02-11T17:29:38.944Z,101239.84
2023-02-11T17:32:06.052Z,101245.97
2023-02-11T17:34:33.007Z,101261.41
2023-02-11T17:37:00.285Z,101258.72
2023-02-11T17:39:27.631Z,101252.53
2023-02-11T17:41:54.548Z,101255.97
2023-02-11T17:44:21.464Z,101262.03
2023-02-11T17:46:48.665Z,101250.22
2023-02-11T17:49:16.340Z,101250.09
2023-02-11T17:51:43.472Z,101248.78
2023-02-11T17:54:18.524Z,101248.38
2023-02-11T17:56:46.166Z,101255.97
2023-02-11T17:59:14.228Z,101247.59
2023-02-11T18:01:42.519Z,101250.22
2023-02-11T18:04:15.204Z,101261.09
2023-02-11T18:06:42.861Z,101257.72
2023-02-11T18:09:10.022Z,101266.34
2023-02-11T18:11:38.820Z,101270.72
2023-02-11T18:14:07.831Z,101267.34
2023-02-11T18:16:36.531Z,101272.31
2023-02-11T18:19:04.432Z,101284.22
2023-02-11T18:21:31.692Z,101270.97
2023-02-11T18:24:01.144Z,101272.50
2023-02-11T18:26:31.415Z,101282.72
2023-02-11T18:29:00.093Z,101291.09
2023-02-11T18:31:28.999Z,101286.16
2023-02-11T18:33:56.119Z,101299.06
2023-02-11T18:36:23.620Z,101297.94
2023-02-11T18:38:52.535Z,101302.69
2023-02-11T18:41:20.081Z,101300.97
2023-02-11T18:43:47.093Z,101305.91
2023-02-11T18:46:16.120Z,101309.44
2023-02-11T18:48:44.779Z,101318.94
2023-02-11T18:51:21.043Z,101319.88
2023-02-11T18:53:47.983Z,101317.88
2023-02-11T18:56:22.377Z,101320.56
2023-02-11T18:58:51.333Z,101324.88
2023-02-11T19:01:27.675Z,101327.56
2023-02-11T19:03:57.599Z,101327.34
2023-02-11T19:06:28.268Z,101334.19
2023-02-11T19:08:59.813Z,101324.69
2023-02-11T19:11:47.702Z,101337.03
2023-02-11T19:14:16.377Z,101331.50
2023-02-11T19:16:44.554Z,101342.56
2023-02-11T19:19:12.863Z,101345.13
2023-02-11T19:21:43.608Z,101345.00
2023-02-11T19:24:11.602Z,101349.56
2023-02-11T19:26:39.022Z,101349.31
2023-02-11T19:29:06.581Z,101345.69
2023-02-11T19:31:33.783Z,101345.00
2023-02-11T19:34:02.583Z,101336.38
2023-02-11T19:36:29.806Z,101337.44
2023-02-11T19:39:00.855Z,101340.16
2023-02-11T19:41:29.404Z,101339.25
2023-02-11T19:43:56.590Z,101349.69
2023-02-11T19:46:25.837Z,101356.13
2023-02-11T19:48:54.011Z,101350.13
2023-02-11T19:51:21.806Z,101349.06
2023-02-11T19:53:48.987Z,101340.81
2023-02-11T19:56:16.117Z,101340.06
2023-02-11T19:58:43.605Z,101346.78
2023-02-11T20:01:14.227Z,101338.44
2023-02-11T20:03:42.794Z,101339.44
2023-02-11T20:06:14.738Z,101339.09
2023-02-11T20:08:41.883Z,101333.97
2023-02-11T20:11:17.508Z,101336.25
2023-02-11T20:13:44.729Z,101331.94
2023-02-11T20:16:18.402Z,101338.13
2023-02-11T20:18:48.005Z,101346.50
2023-02-11T20:21:24.884Z,101353.56
2023-02-11T20:23:52.820Z,101353.63
2023-02-11T20:26:23.943Z,101350.19
2023-02-11T20:28:52.811Z,101354.31
2023-02-11T20:31:21.765Z,101351.44
2023-02-11T20:33:48.796Z,101352.13
2023-02-11T20:36:24.477Z,101356.31
2023-02-11T20:38:51.842Z,101358.19
2023-02-11T20:41:26.001Z,101360.19
2023-02-11T20:43:55.475Z,101363.31
2023-02-11T20:46:27.318Z,101369.38
2023-02-11T20:48:56.143Z,101370.19
2023-02-11T20:51:30.565Z,101371.44
2023-02-11T20:53:58.313Z,101365.56
2023-02-11T20:56:28.994Z,101368.81
2023-02-11T20:59:02.341Z,101371.31
2023-02-11T21:01:34.236Z,101376.28
2023-02-11T21:04:07.629Z,101374.78
2023-02-11T21:06:37.288Z,101372.94
2023-02-11T21:09:06.648Z,101367.94
2023-02-11T21:11:34.098Z,101377.22
2023-02-11T21:14:01.855Z,101378.31
2023-02-11T21:16:29.259Z,101389.28
2023-02-11T21:18:56.932Z,101390.31
2023-02-11T21:21:24.401Z,101386.72
2023-02-11T21:23:51.263Z,101390.72
2023-02-11T21:26:18.754Z,101390.78
2023-02-11T21:28:45.613Z,101387.25
2023-02-11T21:31:26.485Z,101396.66
2023-02-11T21:33:55.302Z,101404.22
2023-02-11T21:36:23.687Z,101408.63
2023-02-11T21:38:51.116Z,101410.41
2023-02-11T21:41:22.315Z,101402.59
2023-02-11T21:43:50.193Z,101411.06
2023-02-11T21:46:18.681Z,101399.28
2023-02-11T21:48:46.047Z,101401.66
2023-02-11T21:51:17.381Z,101410.28
2023-02-11T21:53:44.712Z,101412.84
2023-02-11T21:56:17.343Z,101419.09
2023-02-11T21:58:45.891Z,101429.28
2023-02-11T22:01:16.192Z,101417.22
2023-02-11T22:03:44.296Z,101426.66
2023-02-11T22:06:26.158Z,101425.78
2023-02-11T22:08:54.931Z,101437.84
2023-02-11T22:11:22.276Z,101429.41
2023-02-11T22:13:57.749Z,101433.59
2023-02-11T22:16:26.139Z,101439.78
2023-02-11T22:18:53.303Z,101443.28
2023-02-11T22:21:22.958Z,101444.78
2023-02-11T22:23:51.057Z,101450.22
2023-02-11T22:26:24.127Z,101458.16
2023-02-11T22:28:51.834Z,101457.44
2023-02-11T22:31:29.073Z,101451.22
2023-02-11T22:33:57.501Z,101462.31
2023-02-11T22:36:40.534Z,101466.06
2023-02-11T22:39:13.385Z,101465.84
2023-02-11T22:41:42.652Z,101465.81
2023-02-11T22:44:10.923Z,101468.09
2023-02-11T22:46:38.971Z,101474.66
2023-02-11T22:49:07.348Z,101468.78
2023-02-11T22:51:34.728Z,101460.28
2023-02-11T22:54:04.801Z,101470.66
2023-02-11T22:56:33.865Z,101470.53
2023-02-11T22:59:03.104Z,101474.69
2023-02-11T23:01:31.221Z,101480.78
2023-02-11T23:04:01.405Z,101481.47
2023-02-11T23:06:28.560Z,101479.81
2023-02-11T23:08:55.589Z,101484.91
2023-02-11T23:11:30.975Z,101488.66
2023-02-11T23:13:58.392Z,101482.66
2023-02-11T23:16:32.423Z,101485.91
2023-02-11T23:19:02.362Z,101488.53
2023-02-11T23:21:33.005Z,101496.16
2023-02-11T23:24:04.902Z,101497.09
2023-02-11T23:26:32.099Z,101493.53
2023-02-11T23:28:59.882Z,101492.84
2023-02-11T23:31:34.892Z,101500.81
2023-02-11T23:34:02.206Z,101497.22
2023-02-11T23:36:29.723Z,101489.53
2023-02-11T23:38:56.805Z,101484.22
2023-02-11T23:41:24.047Z,101483.47
2023-02-11T23:43:53.445Z,101490.41
2023-02-11T23:46:22.027Z,101490.28
2023-02-11T23:48:49.957Z,101498.84
2023-02-11T23:51:17.281Z,101500.06
2023-02-11T23:53:45.949Z,101492.22
2023-02-11T23:56:22.153Z,101488.78
2023-02-11T23:58:51.534Z,101488.78
